Leuchars, United Kingdom

6:41 PM BST on September 04, 2015 (GMT +0100)
Sheltered gardens, old Wood Yard | | Change Station
CLOSE
Current Station
Personal Weather Station
Location: Tayport,
Elevation: 23 ft
Nearby Weather Stations

Elev 23 ft 56.45 °N, 2.88 °W | Updated 3 seconds ago

Mostly Cloudy
Mostly Cloudy
62.4 °F
Feels Like 62.4 °F
N
2.9
Wind Variable Wind from NNW
Gusts 4.9 mph

Today
High -- | Low -- °F
--% Chance of Precip.
Yesterday
High -- | Low -- °F
Precip. -- in
6:20 AM 7:59 PM
Waning Gibbous, 57% visible
Pressure 29.98 in
Visibility 6.2 miles
Clouds Mostly Cloudy 3800 ft
Dew Point 51 °F
Humidity 66%
Rainfall 0.00 in
Snow Depth Not available.
UV 1.0 out of 12
Pollen Not available.
Air Quality Not available.
Flu Activity Not available.
METAR EGPN 041720Z 26006KT 240V300 9999 BKN038 17/12 Q1015
Pressure 29.98 in
Visibility 6.2 miles
Clouds Mostly Cloudy 3800 ft
Dew Point 51 °F
Humidity 66%
Rainfall 0.00 in
Snow Depth Not available.
UV 1.0 out of 12
Pollen Not available.
Air Quality Not available.
Flu Activity Not available.
METAR EGPN 041720Z 26006KT 240V300 9999 BKN038 17/12 Q1015

10-Day Weather Forecast

×

Almanac

Astronomy

Sep. 04, 2015 Rise Set
Actual Time
Civil Twilight
Nautical Twilight
Astronomical Twilight
Moon
Length of Visible Light
Length of Day
Tomorrow will be .
, % of the Moon is Illuminated

Today's Extremes

Country Highs Country Lows

Community

WunderPhotos

Upload Photos

1,852,250 photos uploaded!

WunderBlogs® & News

Nearby

Air Quality

  Air Quality AQ Index Pollutant
Not available.

Snow Depth

Station Depth Elevation

Earthquake Activity

City Distance Mag. Time & Date
Minimum magnitude displayed is 2.5.

Coastal Water Temperatures

Place Temperature

Stations

Nearby Weather Stations

Station Location Temp. Windchill Dew Point Humidity Wind Precip. Elev Updated Type